createdAt,value
2023-04-10T00:03:12.949Z,1.50
2023-04-10T00:08:35.026Z,1.70
2023-04-10T00:13:56.885Z,1.58
2023-04-10T00:19:18.731Z,1.40
2023-04-10T00:24:40.596Z,1.30
2023-04-10T00:30:02.982Z,1.50
2023-04-10T00:35:24.839Z,1.50
2023-04-10T00:40:46.698Z,1.50
2023-04-10T00:46:08.678Z,1.30
2023-04-10T00:51:31.607Z,1.25
2023-04-10T00:56:53.623Z,1.30
2023-04-10T01:02:15.993Z,1.40
2023-04-10T01:07:44.244Z,1.13
2023-04-10T01:13:08.734Z,1.20
2023-04-10T01:18:38.048Z,1.20
2023-04-10T01:24:24.496Z,1.10
2023-04-10T01:29:52.535Z,1.38
2023-04-10T01:35:16.876Z,1.13
2023-04-10T01:40:42.786Z,1.30
2023-04-10T01:46:05.706Z,1.30
2023-04-10T01:51:28.418Z,1.20
2023-04-10T01:56:50.468Z,1.10
2023-04-10T02:02:12.584Z,1.52
2023-04-10T02:07:42.681Z,1.20
2023-04-10T02:13:07.684Z,1.35
2023-04-10T02:18:32.374Z,0.90
2023-04-10T02:23:54.580Z,1.10
2023-04-10T02:29:17.180Z,1.20
2023-04-10T02:34:39.052Z,1.13
2023-04-10T02:40:00.994Z,1.00
2023-04-10T02:45:23.141Z,1.20
2023-04-10T02:50:46.907Z,1.00
2023-04-10T02:56:09.394Z,0.88
2023-04-10T03:01:31.440Z,1.20
2023-04-10T03:06:53.702Z,1.10
2023-04-10T03:12:15.771Z,1.10
2023-04-10T03:17:37.836Z,0.73
2023-04-10T03:23:00.978Z,1.10
2023-04-10T03:28:22.934Z,1.13
2023-04-10T03:33:44.969Z,0.93
2023-04-10T03:39:06.863Z,1.10
2023-04-10T03:44:28.670Z,0.98
2023-04-10T03:49:50.538Z,1.10
2023-04-10T03:55:12.500Z,0.85
2023-04-10T04:00:34.467Z,0.82
2023-04-10T04:05:56.548Z,1.10
2023-04-10T04:11:18.416Z,0.93
2023-04-10T04:16:40.301Z,0.80
2023-04-10T04:22:02.262Z,0.82
2023-04-10T04:27:24.197Z,0.77
2023-04-10T04:32:46.091Z,0.80
2023-04-10T04:38:07.991Z,1.00
2023-04-10T04:43:29.796Z,0.80
2023-04-10T04:48:51.646Z,0.80
2023-04-10T04:54:13.526Z,0.80
2023-04-10T04:59:35.708Z,0.90
2023-04-10T05:04:57.589Z,0.73
2023-04-10T05:10:21.226Z,0.60
2023-04-10T05:15:43.406Z,0.90
2023-04-10T05:21:05.455Z,0.55
2023-04-10T05:26:27.601Z,0.70
2023-04-10T05:31:50.637Z,0.70
2023-04-10T05:37:13.395Z,0.80
2023-04-10T05:42:35.228Z,0.88
2023-04-10T05:47:57.083Z,0.70
2023-04-10T05:53:21.446Z,0.75
2023-04-10T05:58:43.364Z,0.63
2023-04-10T06:04:05.341Z,0.60
2023-04-10T06:09:27.570Z,0.60
2023-04-10T06:14:49.456Z,0.80
2023-04-10T06:20:11.666Z,0.70
2023-04-10T06:25:33.511Z,0.65
2023-04-10T06:30:55.505Z,0.68
2023-04-10T06:36:18.129Z,0.80
2023-04-10T06:41:39.954Z,0.75
2023-04-10T06:47:01.805Z,0.75
2023-04-10T06:52:24.173Z,0.80
2023-04-10T06:57:46.095Z,0.80
2023-04-10T07:03:08.246Z,2.55
2023-04-10T07:08:30.231Z,3.92
2023-04-10T07:13:54.017Z,4.30
2023-04-10T07:19:16.230Z,4.10
2023-04-10T07:24:38.084Z,3.67
2023-04-10T07:29:59.926Z,3.42
2023-04-10T07:35:22.124Z,3.17
2023-04-10T07:40:43.940Z,3.05
2023-04-10T07:46:06.496Z,2.50
2023-04-10T07:51:29.879Z,2.55
2023-04-10T07:56:54.714Z,2.45
2023-04-10T08:02:16.762Z,2.60
2023-04-10T08:07:41.029Z,2.10
2023-04-10T08:13:02.865Z,2.10
2023-04-10T08:18:24.801Z,2.22
2023-04-10T08:23:47.296Z,2.10
2023-04-10T08:29:09.261Z,2.15
2023-04-10T08:34:31.159Z,1.70
2023-04-10T08:39:53.535Z,1.90
2023-04-10T08:45:15.975Z,1.50
2023-04-10T08:50:42.450Z,2.03
2023-04-10T08:56:05.806Z,1.58
2023-04-10T09:01:27.713Z,1.52
2023-04-10T09:06:49.641Z,1.90
2023-04-10T09:12:16.568Z,2.30
2023-04-10T09:17:39.248Z,1.80
2023-04-10T09:23:02.098Z,1.65
2023-04-10T09:28:23.997Z,1.60
2023-04-10T09:33:46.444Z,2.00
2023-04-10T09:39:10.705Z,1.70
2023-04-10T09:44:35.160Z,1.90
2023-04-10T09:50:01.032Z,1.88
2023-04-10T09:55:22.893Z,2.00
2023-04-10T10:00:49.953Z,2.20
2023-04-10T10:06:12.256Z,1.60
2023-04-10T10:11:35.794Z,1.48
2023-04-10T10:17:02.059Z,1.40
2023-04-10T10:22:26.493Z,1.73
2023-04-10T10:27:50.067Z,1.80
2023-04-10T10:33:14.272Z,1.50
2023-04-10T10:38:42.070Z,1.65
2023-04-10T10:44:13.750Z,1.52
2023-04-10T10:50:01.441Z,1.60
2023-04-10T10:55:23.284Z,1.63
2023-04-10T11:00:51.137Z,1.40
2023-04-10T11:06:17.436Z,1.42
2023-04-10T11:11:59.361Z,1.52
2023-04-10T11:17:49.222Z,1.40
2023-04-10T11:23:12.887Z,1.10
2023-04-10T11:28:39.677Z,1.70
2023-04-10T11:34:06.447Z,1.92
2023-04-10T11:39:28.649Z,1.77
2023-04-10T11:44:51.761Z,2.03
2023-04-10T11:50:14.883Z,2.13
2023-04-10T11:55:39.974Z,1.95
2023-04-10T12:01:04.419Z,1.88
2023-04-10T12:06:27.881Z,2.78
2023-04-10T12:12:03.766Z,3.03
2023-04-10T12:17:25.834Z,2.97
2023-04-10T12:22:48.341Z,2.88
2023-04-10T12:28:17.948Z,3.30
2023-04-10T12:33:39.821Z,2.70
2023-04-10T12:39:04.250Z,2.75
2023-04-10T12:44:26.192Z,2.58
2023-04-10T12:50:07.056Z,2.38
2023-04-10T12:55:31.978Z,1.80
2023-04-10T13:00:56.453Z,2.00
2023-04-10T13:06:18.428Z,1.77
2023-04-10T13:11:41.075Z,2.78
2023-04-10T13:17:02.931Z,1.63
2023-04-10T13:22:24.756Z,1.95
2023-04-10T13:27:46.595Z,2.00
2023-04-10T13:33:09.630Z,1.77
2023-04-10T13:38:31.678Z,1.63
2023-04-10T13:43:53.773Z,1.83
2023-04-10T13:49:18.201Z,1.35
2023-04-10T13:54:40.062Z,1.67
2023-04-10T14:00:02.194Z,2.20
2023-04-10T14:05:24.093Z,1.48
2023-04-10T14:10:50.912Z,1.67
2023-04-10T14:16:13.118Z,1.30
2023-04-10T14:21:35.281Z,1.60
2023-04-10T14:27:01.016Z,1.38
2023-04-10T14:32:23.153Z,1.42
2023-04-10T14:37:45.125Z,1.80
2023-04-10T14:43:07.569Z,1.30
2023-04-10T14:48:29.926Z,1.20
2023-04-10T14:53:52.525Z,1.33
2023-04-10T14:59:14.573Z,1.35
2023-04-10T15:04:36.614Z,1.55
2023-04-10T15:09:58.932Z,1.27
2023-04-10T15:15:20.836Z,1.15
2023-04-10T15:20:43.396Z,1.08
2023-04-10T15:26:05.537Z,1.15
2023-04-10T15:31:28.157Z,1.35
2023-04-10T15:36:50.093Z,1.30
2023-04-10T15:42:12.065Z,1.15
2023-04-10T15:47:33.958Z,1.10
2023-04-10T15:52:55.955Z,1.55
2023-04-10T15:58:17.808Z,1.02
2023-04-10T16:03:39.900Z,1.30
2023-04-10T16:09:02.171Z,1.42
2023-04-10T16:14:24.922Z,2.17
2023-04-10T16:19:46.960Z,2.83
2023-04-10T16:25:09.619Z,3.95
2023-04-10T16:30:31.529Z,7.38
2023-04-10T16:35:54.284Z,7.05
2023-04-10T16:41:21.094Z,7.05
2023-04-10T16:46:43.062Z,5.35
2023-04-10T16:52:04.962Z,5.00
2023-04-10T16:57:26.902Z,4.75
2023-04-10T17:02:49.504Z,3.60
2023-04-10T17:08:11.326Z,4.00
2023-04-10T17:13:34.264Z,2.92
2023-04-10T17:18:56.918Z,3.13
2023-04-10T17:24:19.043Z,2.42
2023-04-10T17:29:41.487Z,2.30
2023-04-10T17:35:03.437Z,2.33
2023-04-10T17:40:25.347Z,2.67
2023-04-10T17:45:47.304Z,2.10
2023-04-10T17:51:09.454Z,3.47
2023-04-10T17:56:32.023Z,2.65
2023-04-10T18:01:54.058Z,2.90
2023-04-10T18:07:16.207Z,2.67
2023-04-10T18:12:38.114Z,3.33
2023-04-10T18:17:59.965Z,2.67
2023-04-10T18:23:24.390Z,2.65
2023-04-10T18:28:46.583Z,2.58
2023-04-10T18:34:08.933Z,2.65
2023-04-10T18:39:30.989Z,2.75
2023-04-10T18:44:52.837Z,2.35
2023-04-10T18:50:14.767Z,1.70
2023-04-10T18:55:36.669Z,1.73
2023-04-10T19:00:58.632Z,2.00
2023-04-10T19:06:24.484Z,1.40
2023-04-10T19:11:46.422Z,1.40
2023-04-10T19:17:08.777Z,1.50
2023-04-10T19:22:33.110Z,1.73
2023-04-10T19:27:55.131Z,1.88
2023-04-10T19:33:17.491Z,1.30
2023-04-10T19:38:41.241Z,1.65
2023-04-10T19:44:03.116Z,2.60
2023-04-10T19:49:25.441Z,1.50
2023-04-10T19:54:48.131Z,1.70
2023-04-10T20:00:10.624Z,1.48
2023-04-10T20:05:32.546Z,1.92
2023-04-10T20:10:56.078Z,2.13
2023-04-10T20:16:19.156Z,2.40
2023-04-10T20:21:41.214Z,3.05
2023-04-10T20:27:03.390Z,3.15
2023-04-10T20:32:25.385Z,2.47
2023-04-10T20:37:47.693Z,2.28
2023-04-10T20:43:12.444Z,1.98
2023-04-10T20:48:34.551Z,2.17
2023-04-10T20:53:56.463Z,2.20
2023-04-10T20:59:18.705Z,2.50
2023-04-10T21:04:40.561Z,2.00
2023-04-10T21:10:02.513Z,2.58
2023-04-10T21:15:24.454Z,2.05
2023-04-10T21:20:46.339Z,2.25
2023-04-10T21:26:08.312Z,2.67
2023-04-10T21:31:30.163Z,2.80
2023-04-10T21:36:51.976Z,2.28
2023-04-10T21:42:13.834Z,2.38
2023-04-10T21:47:35.704Z,1.90
2023-04-10T21:52:57.660Z,2.80
2023-04-10T21:58:19.601Z,2.83
2023-04-10T22:03:41.639Z,1.83
2023-04-10T22:09:03.662Z,1.70
2023-04-10T22:14:26.015Z,1.75
2023-04-10T22:19:47.856Z,1.80
2023-04-10T22:25:09.815Z,1.95
2023-04-10T22:30:31.652Z,1.60
2023-04-10T22:35:53.952Z,1.55
2023-04-10T22:41:15.916Z,1.88
2023-04-10T22:46:38.015Z,1.73
2023-04-10T22:52:00.128Z,1.30
2023-04-10T22:57:21.990Z,1.27
2023-04-10T23:02:44.070Z,1.33
2023-04-10T23:08:06.000Z,1.48
2023-04-10T23:13:27.828Z,1.45
2023-04-10T23:18:50.921Z,1.65
2023-04-10T23:24:12.732Z,1.20
2023-04-10T23:29:35.136Z,1.17
2023-04-10T23:34:56.974Z,1.48
2023-04-10T23:40:19.971Z,1.20
2023-04-10T23:45:41.809Z,1.10
2023-04-10T23:51:05.452Z,1.15
2023-04-10T23:56:29.470Z,1.45
